Cortez, Colorado
Current Conditions -  °F | °C
As of 3:53 PM on Tuesday 25 Nov 2014 (Local Time) from KCEZ Reporting Station
Clear Clear  
Wind Chill: 35°   Ceiling: Unl
Heat Index: 41°   Visibility: 10mi
Dew Point:   Wind: 9mph
Humidity: 23%   Direction: 270°W
Pressure: 30.32"   Gusts: NA
Location:  37.35°N, 108.55°W
Report Text: KCEZ 252253Z AUTO 27008KT 10SM CLR 05/M15 A3032 RMK AO2 SLP287 T00501150
Loading
Personal Weather Stations






























Interactive Weather Map New forecast layout! Learn more

10-Day Weather Forecast

Advertisements
Track Severe Weather on mobile